Terminal Aerodrome Forecast
Issued by NWS Wilmington, OH

Current Version | Previous Version | Text Only | Print | Product List | Glossary Off
Versions: 1 2 3 4 5 6 7 8 9 10 11 12 13 14 15 16 17 18 19 20 21 22 23 24

000
FTUS41 KILN 220500
TAFDAY
TAF
KDAY 220524Z 2206/2306 30008KT 5SM BR OVC008
      TEMPO 2208/2212 OVC004
     FM221500 32008KT P6SM OVC012
     FM221900 31006KT P6SM OVC022
     FM230100 05004KT P6SM BKN025=

USA.gov is the U.S. government's official web portal to all federal, state and local government web resources and services.